createdAt,value
2022-09-17T00:01:27.137Z,12.50
2022-09-17T00:03:57.503Z,12.50
2022-09-17T00:06:27.773Z,12.40
2022-09-17T00:08:56.111Z,12.30
2022-09-17T00:11:27.005Z,12.40
2022-09-17T00:13:57.010Z,12.40
2022-09-17T00:16:29.412Z,12.30
2022-09-17T00:18:58.128Z,12.40
2022-09-17T00:21:27.901Z,12.50
2022-09-17T00:24:00.312Z,12.40
2022-09-17T00:26:29.397Z,12.40
2022-09-17T00:28:58.868Z,12.40
2022-09-17T00:31:28.524Z,12.40
2022-09-17T00:33:56.630Z,12.50
2022-09-17T00:36:24.978Z,12.50
2022-09-17T00:38:56.192Z,12.40
2022-09-17T00:41:26.448Z,12.30
2022-09-17T00:43:57.900Z,12.40
2022-09-17T00:46:32.530Z,12.40
2022-09-17T00:49:02.890Z,12.30
2022-09-17T00:51:36.265Z,12.30
2022-09-17T00:54:08.734Z,12.40
2022-09-17T00:56:39.437Z,12.30
2022-09-17T00:59:09.205Z,12.30
2022-09-17T01:01:38.976Z,12.40
2022-09-17T01:04:07.262Z,12.30
2022-09-17T01:06:40.025Z,12.40
2022-09-17T01:09:26.342Z,12.30
2022-09-17T01:12:11.612Z,12.30
2022-09-17T01:15:03.045Z,12.40
2022-09-17T01:17:41.947Z,12.40
2022-09-17T01:20:50.461Z,12.50
2022-09-17T01:23:52.073Z,12.40
2022-09-17T01:26:50.074Z,12.40
2022-09-17T01:29:35.726Z,12.40
2022-09-17T01:32:12.681Z,12.40
2022-09-17T01:34:47.115Z,12.30
2022-09-17T01:37:19.138Z,12.30
2022-09-17T01:39:54.816Z,12.30
2022-09-17T01:42:28.412Z,12.30
2022-09-17T01:45:01.358Z,12.30
2022-09-17T01:47:36.697Z,12.30
2022-09-17T01:50:10.476Z,12.30
2022-09-17T01:52:42.125Z,12.30
2022-09-17T01:55:13.836Z,12.30
2022-09-17T01:57:45.562Z,12.30
2022-09-17T02:00:17.687Z,12.30
2022-09-17T02:02:51.268Z,12.30
2022-09-17T02:05:23.707Z,12.30
2022-09-17T02:07:56.937Z,12.30
2022-09-17T02:10:30.757Z,12.30
2022-09-17T02:13:03.224Z,12.40
2022-09-17T02:15:37.290Z,12.40
2022-09-17T02:18:11.668Z,12.40
2022-09-17T02:20:44.577Z,12.40
2022-09-17T02:23:17.877Z,12.40
2022-09-17T02:25:51.257Z,12.50
2022-09-17T02:28:25.951Z,12.40
2022-09-17T02:30:53.942Z,12.40
2022-09-17T02:33:24.240Z,12.40
2022-09-17T02:35:52.348Z,12.30
2022-09-17T02:38:25.616Z,12.30
2022-09-17T02:41:02.503Z,12.30
2022-09-17T02:43:39.618Z,12.30
2022-09-17T02:46:30.996Z,12.30
2022-09-17T02:49:20.338Z,12.30
2022-09-17T02:51:57.305Z,12.30
2022-09-17T02:54:30.605Z,12.30
2022-09-17T02:57:08.655Z,12.30
2022-09-17T02:59:43.723Z,12.30
2022-09-17T03:02:20.399Z,12.30
2022-09-17T03:04:51.155Z,12.30
2022-09-17T03:07:20.830Z,12.30
2022-09-17T03:09:48.795Z,12.30
2022-09-17T03:12:17.439Z,12.30
2022-09-17T03:14:45.406Z,12.20
2022-09-17T03:17:14.839Z,12.20
2022-09-17T03:19:42.800Z,12.20
2022-09-17T03:22:12.513Z,12.20
2022-09-17T03:24:40.572Z,12.20
2022-09-17T03:27:08.466Z,12.30
2022-09-17T03:29:36.467Z,12.30
2022-09-17T03:32:05.517Z,12.30
2022-09-17T03:34:33.509Z,12.30
2022-09-17T03:37:01.525Z,12.30
2022-09-17T03:39:31.492Z,12.30
2022-09-17T03:41:59.448Z,12.30
2022-09-17T03:44:27.385Z,12.30
2022-09-17T03:46:55.467Z,12.30
2022-09-17T03:49:24.822Z,12.30
2022-09-17T03:51:52.770Z,12.30
2022-09-17T03:54:20.896Z,12.30
2022-09-17T03:56:50.185Z,12.40
2022-09-17T03:59:18.197Z,12.40
2022-09-17T04:01:46.236Z,12.40
2022-09-17T04:04:14.304Z,12.40
2022-09-17T04:06:42.244Z,12.40
2022-09-17T04:09:10.204Z,12.40
2022-09-17T04:11:38.195Z,12.40
2022-09-17T04:14:07.574Z,12.40
2022-09-17T04:16:35.595Z,12.40
2022-09-17T04:19:03.660Z,12.40
2022-09-17T04:21:31.641Z,12.40
2022-09-17T04:23:59.944Z,12.40
2022-09-17T04:26:27.912Z,12.40
2022-09-17T04:28:55.943Z,12.40
2022-09-17T04:31:27.067Z,12.50
2022-09-17T04:33:55.293Z,12.50
2022-09-17T04:36:23.289Z,12.50
2022-09-17T04:38:51.469Z,12.40
2022-09-17T04:41:19.445Z,12.40
2022-09-17T04:43:47.381Z,12.40
2022-09-17T04:46:16.793Z,12.40
2022-09-17T04:48:46.186Z,12.40
2022-09-17T04:51:14.170Z,12.40
2022-09-17T04:53:42.112Z,12.40
2022-09-17T04:56:10.084Z,12.30
2022-09-17T04:58:38.031Z,12.30
2022-09-17T05:01:06.223Z,12.40
2022-09-17T05:03:34.236Z,12.30
2022-09-17T05:06:03.512Z,12.40
2022-09-17T05:08:31.470Z,12.30
2022-09-17T05:10:59.433Z,12.30
2022-09-17T05:13:27.462Z,12.30
2022-09-17T05:15:56.627Z,12.30
2022-09-17T05:18:25.334Z,12.30
2022-09-17T05:20:53.303Z,12.30
2022-09-17T05:23:22.645Z,12.30
2022-09-17T05:25:50.640Z,12.30
2022-09-17T05:28:18.578Z,12.30
2022-09-17T05:30:46.603Z,12.30
2022-09-17T05:33:14.547Z,12.40
2022-09-17T05:35:44.154Z,12.30
2022-09-17T05:38:12.253Z,12.30
2022-09-17T05:40:42.321Z,12.30
2022-09-17T05:43:11.256Z,12.30
2022-09-17T05:45:42.657Z,12.40
2022-09-17T05:48:12.977Z,12.30
2022-09-17T05:50:42.487Z,12.40
2022-09-17T05:53:13.775Z,12.40
2022-09-17T05:55:43.229Z,12.50
2022-09-17T05:58:12.700Z,12.50
2022-09-17T06:00:41.699Z,12.40
2022-09-17T06:03:11.047Z,12.50
2022-09-17T06:05:39.032Z,12.50
2022-09-17T06:08:07.689Z,12.50
2022-09-17T06:10:37.544Z,12.40
2022-09-17T06:13:07.180Z,12.50
2022-09-17T06:15:38.181Z,12.50
2022-09-17T06:18:06.249Z,12.50
2022-09-17T06:20:34.483Z,12.50
2022-09-17T06:23:02.458Z,12.60
2022-09-17T06:25:31.751Z,12.60
2022-09-17T06:27:59.856Z,12.70
2022-09-17T06:30:29.177Z,12.70
2022-09-17T06:32:57.161Z,12.80
2022-09-17T06:35:25.162Z,12.80
2022-09-17T06:37:53.145Z,12.90
2022-09-17T06:40:23.655Z,13.00
2022-09-17T06:42:51.747Z,13.00
2022-09-17T06:45:20.350Z,13.10
2022-09-17T06:47:49.707Z,13.00
2022-09-17T06:50:17.707Z,13.00
2022-09-17T06:52:50.165Z,13.10
2022-09-17T06:55:18.385Z,13.00
2022-09-17T06:57:46.445Z,13.10
2022-09-17T07:00:15.670Z,13.10
2022-09-17T07:02:43.614Z,13.00
2022-09-17T07:05:12.892Z,13.00
2022-09-17T07:07:40.912Z,13.00
2022-09-17T07:10:09.647Z,13.00
2022-09-17T07:12:44.455Z,13.00
2022-09-17T07:15:16.147Z,12.90
2022-09-17T07:17:45.135Z,13.00
2022-09-17T07:20:15.160Z,13.00
2022-09-17T07:22:43.599Z,13.00
2022-09-17T07:25:11.926Z,13.10
2022-09-17T07:27:39.921Z,13.30
2022-09-17T07:30:09.135Z,13.40
2022-09-17T07:32:37.126Z,13.50
2022-09-17T07:35:05.644Z,13.60
2022-09-17T07:37:35.180Z,13.50
2022-09-17T07:40:04.526Z,13.30
2022-09-17T07:42:33.077Z,13.30
2022-09-17T07:45:02.229Z,13.30
2022-09-17T07:47:30.478Z,13.30
2022-09-17T07:49:58.461Z,13.30
2022-09-17T07:52:26.428Z,13.40
2022-09-17T07:54:55.757Z,13.40
2022-09-17T07:57:23.700Z,13.40
2022-09-17T07:59:51.614Z,13.50
2022-09-17T08:02:24.056Z,13.60
2022-09-17T08:04:52.490Z,13.60
2022-09-17T08:07:20.434Z,13.60
2022-09-17T08:09:48.415Z,13.60
2022-09-17T08:12:19.413Z,13.70
2022-09-17T08:14:47.627Z,13.70
2022-09-17T08:17:15.857Z,13.90
2022-09-17T08:19:43.916Z,14.00
2022-09-17T08:22:11.991Z,14.00
2022-09-17T08:24:39.944Z,14.10
2022-09-17T08:27:07.886Z,14.20
2022-09-17T08:29:37.202Z,14.10
2022-09-17T08:32:05.267Z,14.20
2022-09-17T08:34:33.993Z,14.20
2022-09-17T08:37:03.025Z,14.30
2022-09-17T08:39:30.957Z,14.30
2022-09-17T08:42:10.513Z,14.40
2022-09-17T08:44:43.632Z,14.50
2022-09-17T08:47:18.316Z,14.50
2022-09-17T08:49:51.867Z,14.60
2022-09-17T08:52:53.215Z,14.50
2022-09-17T08:55:35.150Z,14.40
2022-09-17T08:58:24.326Z,14.40
2022-09-17T09:00:58.757Z,14.60
2022-09-17T09:03:40.627Z,14.60
2022-09-17T09:06:11.065Z,14.70
2022-09-17T09:08:44.196Z,14.70
2022-09-17T09:11:16.253Z,14.70
2022-09-17T09:13:48.054Z,14.80
2022-09-17T09:16:20.487Z,14.80
2022-09-17T09:18:52.978Z,14.80
2022-09-17T09:21:28.119Z,14.80
2022-09-17T09:24:06.463Z,14.70
2022-09-17T09:26:44.940Z,14.70
2022-09-17T09:29:22.092Z,14.80
2022-09-17T09:32:16.752Z,14.90
2022-09-17T09:34:46.719Z,15.00
2022-09-17T09:37:21.026Z,15.10
2022-09-17T09:39:51.960Z,15.10
2022-09-17T09:42:26.668Z,15.10
2022-09-17T09:44:54.887Z,15.20
2022-09-17T09:47:41.962Z,15.20
2022-09-17T09:50:23.724Z,15.30
2022-09-17T09:53:00.147Z,15.20
2022-09-17T09:55:43.890Z,15.10
2022-09-17T09:58:23.142Z,15.00
2022-09-17T10:00:52.803Z,15.00
2022-09-17T10:03:27.501Z,15.00
2022-09-17T10:05:58.799Z,15.00
2022-09-17T10:08:27.837Z,14.90
2022-09-17T10:10:58.697Z,14.90
2022-09-17T10:13:27.484Z,14.80
2022-09-17T10:15:55.797Z,14.90
2022-09-17T10:18:26.327Z,14.90
2022-09-17T10:20:59.646Z,15.00
2022-09-17T10:23:29.921Z,15.10
2022-09-17T10:25:58.419Z,15.20
2022-09-17T10:28:46.696Z,15.40
2022-09-17T10:31:14.777Z,15.50
2022-09-17T10:33:57.131Z,15.50
2022-09-17T10:36:43.612Z,15.50
2022-09-17T10:39:36.444Z,15.30
2022-09-17T10:42:06.582Z,15.20
2022-09-17T10:44:36.664Z,15.30
2022-09-17T10:47:07.359Z,15.30
2022-09-17T10:49:43.094Z,15.50
2022-09-17T10:52:19.126Z,15.80
2022-09-17T10:55:19.420Z,16.00
2022-09-17T10:58:14.578Z,15.80
2022-09-17T11:00:56.696Z,15.60
2022-09-17T11:04:09.458Z,15.60
2022-09-17T11:06:59.418Z,15.60
2022-09-17T11:09:36.238Z,15.70
2022-09-17T11:12:21.593Z,15.70
2022-09-17T11:14:55.656Z,15.70
2022-09-17T11:17:46.780Z,15.70
2022-09-17T11:20:30.229Z,15.60
2022-09-17T11:23:18.528Z,15.60
2022-09-17T11:25:55.196Z,15.70
2022-09-17T11:28:48.119Z,15.90
2022-09-17T11:31:26.946Z,16.10
2022-09-17T11:34:10.130Z,16.30
2022-09-17T11:36:47.041Z,16.30
2022-09-17T11:39:21.571Z,16.30
2022-09-17T11:41:53.687Z,16.30
2022-09-17T11:44:27.390Z,16.30
2022-09-17T11:46:59.493Z,16.30
2022-09-17T11:49:34.601Z,16.40
2022-09-17T11:52:08.329Z,16.50
2022-09-17T11:54:46.829Z,16.20
2022-09-17T11:57:17.763Z,15.80
2022-09-17T11:59:51.007Z,15.50
2022-09-17T12:02:24.476Z,15.10
2022-09-17T12:04:59.806Z,14.80
2022-09-17T12:07:42.237Z,14.70
2022-09-17T12:10:34.070Z,14.60
2022-09-17T12:13:13.146Z,14.30
2022-09-17T12:15:52.324Z,14.20
2022-09-17T12:18:32.708Z,14.10
2022-09-17T12:21:06.376Z,14.10
2022-09-17T12:23:40.725Z,14.10
2022-09-17T12:26:29.398Z,14.20
2022-09-17T12:29:12.591Z,14.50
2022-09-17T12:31:47.562Z,14.70
2022-09-17T12:34:33.056Z,14.90
2022-09-17T12:37:08.245Z,15.10
2022-09-17T12:40:01.562Z,15.30
2022-09-17T12:42:49.951Z,15.50
2022-09-17T12:45:31.472Z,15.70
2022-09-17T12:48:38.375Z,15.90
2022-09-17T12:51:18.241Z,16.00
2022-09-17T12:53:58.870Z,16.20
2022-09-17T12:56:41.659Z,16.30
2022-09-17T12:59:15.905Z,16.20
2022-09-17T13:01:52.867Z,16.00
2022-09-17T13:05:00.122Z,15.90
2022-09-17T13:08:01.106Z,15.70
2022-09-17T13:11:02.083Z,15.60
2022-09-17T13:13:44.955Z,15.20
2022-09-17T13:16:20.634Z,14.60
2022-09-17T13:19:15.665Z,13.70
2022-09-17T13:21:54.558Z,13.10
2022-09-17T13:24:25.080Z,12.80
2022-09-17T13:26:55.085Z,12.80
2022-09-17T13:30:01.013Z,12.70
2022-09-17T13:33:01.018Z,12.70
2022-09-17T13:35:55.960Z,12.70
2022-09-17T13:38:24.835Z,12.80
2022-09-17T13:40:54.118Z,12.70
2022-09-17T13:43:27.547Z,12.70
2022-09-17T13:46:16.993Z,12.60
2022-09-17T13:48:51.282Z,12.70
2022-09-17T13:51:44.910Z,12.80
2022-09-17T13:54:14.160Z,13.30
2022-09-17T13:56:46.381Z,14.10
2022-09-17T13:59:18.049Z,14.90
2022-09-17T14:02:02.047Z,15.60
2022-09-17T14:04:46.875Z,16.10
2022-09-17T14:07:48.910Z,16.30
2022-09-17T14:10:42.399Z,16.80
2022-09-17T14:13:45.005Z,17.10
2022-09-17T14:16:46.972Z,17.70
2022-09-17T14:19:51.606Z,18.80
2022-09-17T14:22:26.019Z,19.90
2022-09-17T14:24:55.497Z,21.10
2022-09-17T14:27:55.775Z,21.90
2022-09-17T14:30:27.627Z,21.70
2022-09-17T14:33:04.353Z,20.90
2022-09-17T14:35:36.947Z,20.10
2022-09-17T14:38:11.288Z,19.20
2022-09-17T14:40:45.979Z,18.30
2022-09-17T14:43:21.200Z,17.60
2022-09-17T14:45:53.137Z,17.10
2022-09-17T14:48:32.346Z,16.60
2022-09-17T14:51:32.820Z,16.10
2022-09-17T14:54:18.865Z,15.50
2022-09-17T14:56:59.284Z,15.30
2022-09-17T14:59:43.982Z,15.50
2022-09-17T15:02:37.971Z,15.60
2022-09-17T15:05:21.977Z,15.40
2022-09-17T15:07:51.653Z,15.50
2022-09-17T15:10:22.058Z,15.50
2022-09-17T15:12:51.517Z,15.50
2022-09-17T15:15:22.919Z,15.40
2022-09-17T15:17:52.378Z,15.20
2022-09-17T15:20:23.340Z,14.90
2022-09-17T15:23:02.557Z,14.80
2022-09-17T15:25:32.360Z,14.60
2022-09-17T15:28:09.749Z,14.60
2022-09-17T15:30:37.864Z,14.60
2022-09-17T15:33:11.729Z,14.40
2022-09-17T15:35:41.012Z,14.50
2022-09-17T15:38:27.237Z,14.40
2022-09-17T15:40:55.363Z,14.30
2022-09-17T15:43:27.892Z,14.30
2022-09-17T15:45:58.145Z,14.30
2022-09-17T15:48:37.509Z,14.50
2022-09-17T15:51:07.882Z,14.70
2022-09-17T15:53:37.633Z,14.80
2022-09-17T15:56:08.306Z,14.90
2022-09-17T15:58:51.867Z,15.10
2022-09-17T16:01:55.972Z,15.20
2022-09-17T16:04:35.233Z,15.30
2022-09-17T16:07:29.166Z,15.30
2022-09-17T16:09:59.394Z,15.10
2022-09-17T16:12:29.969Z,15.10
2022-09-17T16:15:00.746Z,15.10
2022-09-17T16:17:35.751Z,15.10
2022-09-17T16:20:10.555Z,15.00
2022-09-17T16:22:38.573Z,15.10
2022-09-17T16:25:08.867Z,15.10
2022-09-17T16:27:47.567Z,15.10
2022-09-17T16:30:18.690Z,15.00
2022-09-17T16:32:47.309Z,15.00
2022-09-17T16:35:17.652Z,14.90
2022-09-17T16:37:48.773Z,14.80
2022-09-17T16:40:18.918Z,14.90
2022-09-17T16:42:47.747Z,14.90
2022-09-17T16:45:15.992Z,14.90
2022-09-17T16:47:44.813Z,14.90
2022-09-17T16:50:15.198Z,14.90
2022-09-17T16:52:43.835Z,14.90
2022-09-17T16:55:13.356Z,14.80
2022-09-17T16:57:43.282Z,14.80
2022-09-17T17:00:14.249Z,14.80
2022-09-17T17:02:42.524Z,14.80
2022-09-17T17:05:11.500Z,14.70
2022-09-17T17:07:39.842Z,14.70
2022-09-17T17:10:10.025Z,14.60
2022-09-17T17:12:39.475Z,14.60
2022-09-17T17:15:10.179Z,14.60
2022-09-17T17:17:38.215Z,14.60
2022-09-17T17:20:08.734Z,14.50
2022-09-17T17:22:37.917Z,14.50
2022-09-17T17:25:06.826Z,14.40
2022-09-17T17:27:35.633Z,14.40
2022-09-17T17:30:04.694Z,14.40
2022-09-17T17:32:34.255Z,14.40
2022-09-17T17:35:02.314Z,14.40
2022-09-17T17:37:30.326Z,14.40
2022-09-17T17:39:58.899Z,14.40
2022-09-17T17:42:26.962Z,14.30
2022-09-17T17:44:55.565Z,14.30
2022-09-17T17:47:23.594Z,14.30
2022-09-17T17:49:52.943Z,14.30
2022-09-17T17:52:21.016Z,14.30
2022-09-17T17:54:49.008Z,14.20
2022-09-17T17:57:17.347Z,14.20
2022-09-17T17:59:45.428Z,14.20
2022-09-17T18:02:13.503Z,14.20
2022-09-17T18:04:41.610Z,14.20
2022-09-17T18:07:11.034Z,14.20
2022-09-17T18:09:39.017Z,14.20
2022-09-17T18:12:07.895Z,14.20
2022-09-17T18:14:35.940Z,14.30
2022-09-17T18:17:03.985Z,14.20
2022-09-17T18:19:31.926Z,14.20
2022-09-17T18:21:59.894Z,14.20
2022-09-17T18:24:29.239Z,14.20
2022-09-17T18:26:57.155Z,14.10
2022-09-17T18:29:25.150Z,14.10
2022-09-17T18:31:53.157Z,14.20
2022-09-17T18:34:21.586Z,14.20
2022-09-17T18:36:51.298Z,14.20
2022-09-17T18:42:10.533Z,14.10
2022-09-17T18:44:38.493Z,14.10
2022-09-17T18:47:06.837Z,14.10
2022-09-17T18:49:34.780Z,14.10
2022-09-17T18:52:03.171Z,14.10
2022-09-17T18:54:31.294Z,14.00
2022-09-17T18:56:59.266Z,14.00
2022-09-17T18:59:28.594Z,14.00
2022-09-17T19:01:56.678Z,14.10
2022-09-17T19:04:25.032Z,14.10
2022-09-17T19:06:52.988Z,14.10
2022-09-17T19:09:21.103Z,14.10
2022-09-17T19:11:49.166Z,14.10
2022-09-17T19:14:17.130Z,14.10
2022-09-17T19:16:46.436Z,14.10
2022-09-17T19:19:14.406Z,14.10
2022-09-17T19:21:42.415Z,14.10
2022-09-17T19:24:10.408Z,14.10
2022-09-17T19:26:39.427Z,14.10
2022-09-17T19:29:08.999Z,14.10
2022-09-17T19:31:37.110Z,14.10
2022-09-17T19:34:08.031Z,14.10
2022-09-17T19:36:36.091Z,14.10
2022-09-17T19:39:04.200Z,14.10
2022-09-17T19:41:33.403Z,14.00
2022-09-17T19:44:01.404Z,14.00
2022-09-17T19:46:30.305Z,14.00
2022-09-17T19:49:00.432Z,13.90
2022-09-17T19:51:31.817Z,13.90
2022-09-17T19:54:09.487Z,13.90
2022-09-17T19:56:37.598Z,13.90
2022-09-17T19:59:05.592Z,13.90
2022-09-17T20:01:34.839Z,13.90
2022-09-17T20:04:03.410Z,13.80
2022-09-17T20:06:34.238Z,13.80
2022-09-17T20:09:02.578Z,13.80
2022-09-17T20:11:30.622Z,13.80
2022-09-17T20:14:02.894Z,13.80
2022-09-17T20:16:31.562Z,13.90
2022-09-17T20:18:59.728Z,13.80
2022-09-17T20:21:29.509Z,13.80
2022-09-17T20:23:59.441Z,13.80
2022-09-17T20:26:28.333Z,13.80
2022-09-17T20:28:56.423Z,13.80
2022-09-17T20:31:26.218Z,13.80
2022-09-17T20:33:55.485Z,13.80
2022-09-17T20:36:25.211Z,13.80
2022-09-17T20:41:43.657Z,13.80
2022-09-17T20:44:11.655Z,13.80
2022-09-17T20:46:39.729Z,13.80
2022-09-17T20:49:07.792Z,13.80
2022-09-17T20:51:35.827Z,13.80
2022-09-17T20:54:03.850Z,13.80
2022-09-17T20:56:34.497Z,13.80
2022-09-17T20:59:13.119Z,13.80
2022-09-17T21:01:42.952Z,13.80
2022-09-17T21:04:11.204Z,13.90
2022-09-17T21:06:41.358Z,13.80
2022-09-17T21:09:11.943Z,13.80
2022-09-17T21:11:40.061Z,13.80
2022-09-17T21:14:10.614Z,13.80
2022-09-17T21:16:39.085Z,13.80
2022-09-17T21:19:09.054Z,13.80
2022-09-17T21:21:37.283Z,13.70
2022-09-17T21:24:07.069Z,13.70
2022-09-17T21:26:35.798Z,13.70
2022-09-17T21:29:03.865Z,13.60
2022-09-17T21:31:36.559Z,13.70
2022-09-17T21:34:07.772Z,13.60
2022-09-17T21:36:37.883Z,13.60
2022-09-17T21:39:08.475Z,13.50
2022-09-17T21:41:41.471Z,13.60
2022-09-17T21:44:11.321Z,13.50
2022-09-17T21:46:41.829Z,13.50
2022-09-17T21:49:10.224Z,13.50
2022-09-17T21:51:39.780Z,13.50
2022-09-17T21:54:09.613Z,13.40
2022-09-17T21:56:38.306Z,13.40
2022-09-17T21:59:07.863Z,13.30
2022-09-17T22:01:39.546Z,13.30
2022-09-17T22:04:10.383Z,13.30
2022-09-17T22:06:39.010Z,13.30
2022-09-17T22:09:08.875Z,13.30
2022-09-17T22:11:38.228Z,13.30
2022-09-17T22:14:09.119Z,13.20
2022-09-17T22:16:39.134Z,13.20
2022-09-17T22:19:09.678Z,13.20
2022-09-17T22:21:40.065Z,13.20
2022-09-17T22:24:09.073Z,13.20
2022-09-17T22:26:39.980Z,13.20
2022-09-17T22:29:11.610Z,13.20
2022-09-17T22:31:40.152Z,13.20
2022-09-17T22:34:10.404Z,13.20
2022-09-17T22:36:38.969Z,13.20
2022-09-17T22:39:07.490Z,13.10
2022-09-17T22:41:37.802Z,13.20
2022-09-17T22:44:07.359Z,13.10
2022-09-17T22:46:39.144Z,13.10
2022-09-17T22:49:10.092Z,13.10
2022-09-17T22:51:38.789Z,13.00
2022-09-17T22:54:07.905Z,13.10
2022-09-17T22:56:36.578Z,13.00
2022-09-17T22:59:05.355Z,13.00
2022-09-17T23:01:36.266Z,13.00
2022-09-17T23:04:05.588Z,13.00
2022-09-17T23:06:37.931Z,13.00
2022-09-17T23:09:06.682Z,13.00
2022-09-17T23:11:36.466Z,13.00
2022-09-17T23:14:06.812Z,13.00
2022-09-17T23:16:36.306Z,13.00
2022-09-17T23:19:04.408Z,13.00
2022-09-17T23:21:33.934Z,13.00
2022-09-17T23:24:03.552Z,13.00
2022-09-17T23:26:31.614Z,13.00
2022-09-17T23:29:04.849Z,13.10
2022-09-17T23:31:35.209Z,13.00
2022-09-17T23:34:04.604Z,13.10
2022-09-17T23:36:35.993Z,13.10
2022-09-17T23:39:05.167Z,13.10
2022-09-17T23:41:34.724Z,13.10
2022-09-17T23:44:04.198Z,13.00
2022-09-17T23:46:33.980Z,13.10
2022-09-17T23:49:02.680Z,13.10
2022-09-17T23:51:32.147Z,13.10
2022-09-17T23:54:01.514Z,13.20
2022-09-17T23:56:29.914Z,13.20
2022-09-17T23:59:01.498Z,13.20
